createdAt,value
2023-04-12T00:02:02.972Z,100367.72
2023-04-12T00:04:30.271Z,100347.78
2023-04-12T00:06:57.935Z,100362.03
2023-04-12T00:09:25.241Z,100329.59
2023-04-12T00:11:52.185Z,100337.94
2023-04-12T00:14:19.325Z,100316.19
2023-04-12T00:16:46.393Z,100323.03
2023-04-12T00:19:13.332Z,100311.50
2023-04-12T00:21:40.312Z,100307.28
2023-04-12T00:24:07.650Z,100310.28
2023-04-12T00:26:34.877Z,100298.09
2023-04-12T00:29:01.811Z,100287.59
2023-04-12T00:31:29.290Z,100271.78
2023-04-12T00:33:56.715Z,100276.56
2023-04-12T00:36:23.761Z,100263.50
2023-04-12T00:38:50.661Z,100272.94
2023-04-12T00:41:18.102Z,100274.53
2023-04-12T00:43:45.028Z,100266.50
2023-04-12T00:46:12.349Z,100272.19
2023-04-12T00:48:40.083Z,100236.44
2023-04-12T00:51:07.885Z,100264.47
2023-04-12T00:53:35.699Z,100265.13
2023-04-12T00:56:04.173Z,100245.84
2023-04-12T00:58:31.885Z,100233.72
2023-04-12T01:00:59.241Z,100221.09
2023-04-12T01:03:27.829Z,100228.69
2023-04-12T01:06:09.621Z,100242.69
2023-04-12T01:08:58.289Z,100226.25
2023-04-12T01:12:06.635Z,100227.19
2023-04-12T01:14:58.845Z,100204.16
2023-04-12T01:17:37.895Z,100201.78
2023-04-12T01:20:13.431Z,100184.00
2023-04-12T01:23:17.835Z,100184.78
2023-04-12T01:26:02.635Z,100186.38
2023-04-12T01:28:45.582Z,100152.69
2023-04-12T01:31:14.130Z,100180.41
2023-04-12T01:33:43.320Z,100159.13
2023-04-12T01:36:18.231Z,100170.97
2023-04-12T01:38:45.737Z,100166.22
2023-04-12T01:41:12.718Z,100151.84
2023-04-12T01:43:44.652Z,100158.81
2023-04-12T01:46:20.407Z,100157.25
2023-04-12T01:48:53.092Z,100128.53
2023-04-12T01:51:50.241Z,100128.59
2023-04-12T01:54:28.122Z,100108.13
2023-04-12T01:57:00.366Z,100097.84
2023-04-12T01:59:32.113Z,100113.53
2023-04-12T02:01:59.204Z,100109.81
2023-04-12T02:04:27.775Z,100109.06
2023-04-12T02:06:56.102Z,100093.94
2023-04-12T02:09:23.785Z,100096.63
2023-04-12T02:11:51.033Z,100081.38
2023-04-12T02:14:18.118Z,100083.63
2023-04-12T02:16:46.345Z,100084.06
2023-04-12T02:19:13.865Z,100088.97
2023-04-12T02:21:46.696Z,100069.69
2023-04-12T02:24:15.599Z,100077.66
2023-04-12T02:26:45.026Z,100056.78
2023-04-12T02:29:12.911Z,100060.69
2023-04-12T02:31:40.192Z,100058.13
2023-04-12T02:34:10.779Z,100049.34
2023-04-12T02:36:40.565Z,100041.78
2023-04-12T02:39:07.811Z,100041.03
2023-04-12T02:41:36.383Z,100047.34
2023-04-12T02:44:06.150Z,100040.84
2023-04-12T02:46:33.214Z,100030.94
2023-04-12T02:49:00.217Z,100022.06
2023-04-12T02:51:35.287Z,100034.50
2023-04-12T02:54:02.543Z,100030.72
2023-04-12T02:56:39.061Z,100007.81
2023-04-12T02:59:25.264Z,99989.50
2023-04-12T03:02:09.069Z,99992.94
2023-04-12T03:04:39.810Z,99991.22
2023-04-12T03:07:11.360Z,99980.50
2023-04-12T03:09:53.306Z,99978.47
2023-04-12T03:12:22.824Z,99988.69
2023-04-12T03:15:04.225Z,99979.69
2023-04-12T03:17:31.239Z,99987.25
2023-04-12T03:20:10.659Z,99959.56
2023-04-12T03:22:42.395Z,99961.81
2023-04-12T03:25:12.560Z,99955.34
2023-04-12T03:27:45.182Z,99947.06
2023-04-12T03:30:15.302Z,99948.22
2023-04-12T03:32:44.045Z,99950.69
2023-04-12T03:35:11.650Z,99944.38
2023-04-12T03:37:42.734Z,99942.66
2023-04-12T03:40:11.790Z,99930.25
2023-04-12T03:42:42.230Z,99914.84
2023-04-12T03:45:12.422Z,99924.03
2023-04-12T03:47:42.809Z,99926.91
2023-04-12T03:50:12.272Z,99930.69
2023-04-12T03:52:44.255Z,99932.28
2023-04-12T03:55:11.915Z,99907.28
2023-04-12T03:57:39.043Z,99904.88
2023-04-12T04:00:08.858Z,99905.00
2023-04-12T04:02:47.250Z,99891.97
2023-04-12T04:05:15.841Z,99875.28
2023-04-12T04:07:44.770Z,99880.75
2023-04-12T04:10:12.789Z,99863.97
2023-04-12T04:12:44.728Z,99879.88
2023-04-12T04:15:15.058Z,99868.94
2023-04-12T04:17:43.100Z,99862.13
2023-04-12T04:20:13.541Z,99850.06
2023-04-12T04:22:42.979Z,99872.25
2023-04-12T04:25:10.510Z,99879.06
2023-04-12T04:27:44.786Z,99870.78
2023-04-12T04:30:12.717Z,99856.16
2023-04-12T04:32:44.217Z,99847.28
2023-04-12T04:35:12.295Z,99841.19
2023-04-12T04:37:52.756Z,99822.94
2023-04-12T04:40:22.038Z,99849.50
2023-04-12T04:42:54.625Z,99831.72
2023-04-12T04:45:28.755Z,99829.50
2023-04-12T04:47:56.677Z,99802.38
2023-04-12T04:50:24.787Z,99811.25
2023-04-12T04:52:53.339Z,99801.97
2023-04-12T04:55:45.347Z,99794.19
2023-04-12T04:58:13.476Z,99801.13
2023-04-12T05:00:44.832Z,99796.84
2023-04-12T05:03:12.641Z,99776.41
2023-04-12T05:05:40.305Z,99772.25
2023-04-12T05:08:10.843Z,99763.47
2023-04-12T05:10:37.792Z,99751.88
2023-04-12T05:13:04.701Z,99767.19
2023-04-12T05:15:31.939Z,99761.44
2023-04-12T05:17:59.842Z,99758.13
2023-04-12T05:20:26.806Z,99725.84
2023-04-12T05:22:54.005Z,99748.31
2023-04-12T05:25:21.094Z,99735.47
2023-04-12T05:28:02.625Z,99751.00
2023-04-12T05:30:29.993Z,99742.47
2023-04-12T05:32:57.648Z,99734.84
2023-04-12T05:35:25.673Z,99721.88
2023-04-12T05:37:57.994Z,99721.63
2023-04-12T05:40:25.080Z,99707.09
2023-04-12T05:42:54.593Z,99708.34
2023-04-12T05:45:21.652Z,99700.69
2023-04-12T05:47:48.686Z,99717.56
2023-04-12T05:50:15.781Z,99698.44
2023-04-12T05:52:43.678Z,99697.41
2023-04-12T05:55:10.723Z,99694.00
2023-04-12T05:57:41.013Z,99701.09
2023-04-12T06:00:14.303Z,99689.22
2023-04-12T06:02:45.657Z,99689.78
2023-04-12T06:05:13.219Z,99684.56
2023-04-12T06:07:44.547Z,99693.50
2023-04-12T06:10:15.799Z,99683.47
2023-04-12T06:12:43.035Z,99672.88
2023-04-12T06:15:10.636Z,99660.69
2023-04-12T06:17:38.206Z,99668.66
2023-04-12T06:20:08.689Z,99657.19
2023-04-12T06:22:37.753Z,99659.47
2023-04-12T06:25:06.113Z,99654.84
2023-04-12T06:27:33.101Z,99644.81
2023-04-12T06:30:03.034Z,99634.06
2023-04-12T06:32:33.785Z,99639.78
2023-04-12T06:35:01.141Z,99626.75
2023-04-12T06:37:28.161Z,99631.41
2023-04-12T06:39:55.078Z,99629.03
2023-04-12T06:42:22.083Z,99626.03
2023-04-12T06:44:48.951Z,99616.41
2023-04-12T06:47:16.221Z,99618.13
2023-04-12T06:49:43.149Z,99621.50
2023-04-12T06:52:10.122Z,99597.72
2023-04-12T06:54:38.358Z,99607.38
2023-04-12T06:57:11.036Z,99600.31
2023-04-12T06:59:37.945Z,99599.91
2023-04-12T07:02:05.014Z,99589.31
2023-04-12T07:04:31.904Z,99607.41
2023-04-12T07:06:58.873Z,99593.81
2023-04-12T07:09:25.961Z,99579.84
2023-04-12T07:11:52.901Z,99569.22
2023-04-12T07:14:19.912Z,99532.44
2023-04-12T07:16:46.862Z,99566.41
2023-04-12T07:19:13.822Z,99569.50
2023-04-12T07:21:41.419Z,99562.28
2023-04-12T07:24:08.446Z,99557.19
2023-04-12T07:26:35.462Z,99545.44
2023-04-12T07:29:02.433Z,99552.38
2023-04-12T07:31:30.790Z,99537.53
2023-04-12T07:33:57.821Z,99524.53
2023-04-12T07:36:24.841Z,99541.06
2023-04-12T07:38:55.832Z,99536.81
2023-04-12T07:41:23.287Z,99514.06
2023-04-12T07:43:50.403Z,99494.53
2023-04-12T07:46:17.447Z,99534.59
2023-04-12T07:48:44.459Z,99513.78
2023-04-12T07:51:11.650Z,99508.53
2023-04-12T07:53:38.773Z,99523.69
2023-04-12T07:56:06.928Z,99510.94
2023-04-12T07:58:37.393Z,99509.97
2023-04-12T08:01:04.616Z,99508.41
2023-04-12T08:03:31.752Z,99518.59
2023-04-12T08:06:00.036Z,99518.84
2023-04-12T08:08:27.304Z,99497.22
2023-04-12T08:10:54.605Z,99510.06
2023-04-12T08:13:22.290Z,99492.41
2023-04-12T08:15:49.416Z,99492.69
2023-04-12T08:18:16.454Z,99478.13
2023-04-12T08:20:47.052Z,99491.56
2023-04-12T08:23:14.030Z,99492.84
2023-04-12T08:25:41.198Z,99462.00
2023-04-12T08:28:08.303Z,99491.69
2023-04-12T08:30:35.829Z,99475.03
2023-04-12T08:33:03.007Z,99470.38
2023-04-12T08:35:30.343Z,99463.34
2023-04-12T08:38:06.972Z,99481.28
2023-04-12T08:40:34.198Z,99448.03
2023-04-12T08:43:09.983Z,99474.19
2023-04-12T08:45:38.151Z,99451.59
2023-04-12T08:48:06.141Z,99447.63
2023-04-12T08:50:33.520Z,99466.75
2023-04-12T08:53:00.809Z,99430.94
2023-04-12T08:55:27.722Z,99464.03
2023-04-12T08:57:56.869Z,99448.34
2023-04-12T09:00:24.406Z,99454.44
2023-04-12T09:02:51.722Z,99445.66
2023-04-12T09:05:18.969Z,99435.88
2023-04-12T09:07:45.911Z,99425.84
2023-04-12T09:10:35.164Z,99417.78
2023-04-12T09:13:04.001Z,99423.31
2023-04-12T09:15:31.293Z,99395.44
2023-04-12T09:18:09.466Z,99413.69
2023-04-12T09:20:39.822Z,99400.81
2023-04-12T09:23:22.048Z,99404.47
2023-04-12T09:25:51.764Z,99402.06
2023-04-12T09:28:22.990Z,99405.75
2023-04-12T09:30:53.158Z,99387.09
2023-04-12T09:33:22.370Z,99396.38
2023-04-12T09:35:49.838Z,99385.38
2023-04-12T09:38:17.166Z,99391.31
2023-04-12T09:40:44.217Z,99371.25
2023-04-12T09:43:11.313Z,99362.06
2023-04-12T09:45:39.062Z,99365.03
2023-04-12T09:48:07.383Z,99350.88
2023-04-12T09:50:34.829Z,99361.19
2023-04-12T09:53:04.025Z,99367.34
2023-04-12T09:55:32.434Z,99357.59
2023-04-12T09:58:04.059Z,99340.91
2023-04-12T10:00:34.363Z,99343.16
2023-04-12T10:03:02.884Z,99334.97
2023-04-12T10:05:30.287Z,99354.19
2023-04-12T10:08:00.444Z,99339.19
2023-04-12T10:10:31.262Z,99340.03
2023-04-12T10:12:58.629Z,99334.81
2023-04-12T10:15:25.983Z,99327.19
2023-04-12T10:17:57.656Z,99327.63
2023-04-12T10:20:28.975Z,99338.88
2023-04-12T10:22:59.304Z,99349.34
2023-04-12T10:25:31.034Z,99341.63
2023-04-12T10:28:13.710Z,99352.75
2023-04-12T10:30:40.743Z,99322.19
2023-04-12T10:33:10.488Z,99337.16
2023-04-12T10:36:03.096Z,99335.03
2023-04-12T10:38:37.364Z,99335.13
2023-04-12T10:41:22.549Z,99324.38
2023-04-12T10:43:54.704Z,99320.94
2023-04-12T10:46:38.680Z,99319.38
2023-04-12T10:49:13.868Z,99308.78
2023-04-12T10:52:01.752Z,99325.63
2023-04-12T10:54:36.314Z,99299.06
2023-04-12T10:57:05.106Z,99305.00
2023-04-12T10:59:55.636Z,99309.31
2023-04-12T11:02:23.217Z,99298.28
2023-04-12T11:05:10.212Z,99276.88
2023-04-12T11:08:00.790Z,99313.72
2023-04-12T11:10:41.423Z,99293.63
2023-04-12T11:13:15.046Z,99280.09
2023-04-12T11:15:42.343Z,99297.81
2023-04-12T11:18:12.579Z,99292.53
2023-04-12T11:20:42.870Z,99287.44
2023-04-12T11:23:11.753Z,99301.88
2023-04-12T11:25:38.918Z,99280.19
2023-04-12T11:28:14.075Z,99287.34
2023-04-12T11:30:57.719Z,99292.16
2023-04-12T11:33:38.236Z,99273.59
2023-04-12T11:36:12.686Z,99288.69
2023-04-12T11:38:40.626Z,99273.94
2023-04-12T11:41:09.553Z,99264.00
2023-04-12T11:43:38.620Z,99266.31
2023-04-12T11:46:06.104Z,99254.00
2023-04-12T11:48:33.296Z,99259.56
2023-04-12T11:51:11.035Z,99261.16
2023-04-12T11:53:38.934Z,99246.69
2023-04-12T11:56:06.343Z,99234.66
2023-04-12T11:58:33.555Z,99253.06
2023-04-12T12:01:00.733Z,99266.41
2023-04-12T12:03:28.210Z,99255.25
2023-04-12T12:05:55.598Z,99254.09
2023-04-12T12:08:24.348Z,99236.41
2023-04-12T12:11:06.510Z,99241.09
2023-04-12T12:13:53.499Z,99249.78
2023-04-12T12:16:29.265Z,99227.63
2023-04-12T12:18:57.233Z,99234.56
2023-04-12T12:21:26.233Z,99221.56
2023-04-12T12:23:53.240Z,99246.06
2023-04-12T12:26:30.638Z,99241.56
2023-04-12T12:29:00.120Z,99228.97
2023-04-12T12:31:28.368Z,99231.31
2023-04-12T12:34:05.846Z,99207.53
2023-04-12T12:36:38.583Z,99223.47
2023-04-12T12:39:11.546Z,99226.53
2023-04-12T12:41:41.140Z,99202.34
2023-04-12T12:44:08.677Z,99255.53
2023-04-12T12:49:06.059Z,99250.66
2023-04-12T12:51:33.240Z,99237.47
2023-04-12T12:54:01.218Z,99235.66
2023-04-12T12:56:28.174Z,99213.88
2023-04-12T12:58:55.375Z,99233.31
2023-04-12T13:01:22.367Z,99228.44
2023-04-12T13:03:49.655Z,99232.00
2023-04-12T13:06:16.865Z,99218.34
2023-04-12T13:08:43.800Z,99223.34
2023-04-12T13:11:10.940Z,99211.00
2023-04-12T13:13:37.902Z,99224.72
2023-04-12T13:16:05.611Z,99234.06
2023-04-12T13:18:32.599Z,99216.69
2023-04-12T13:20:59.566Z,99218.88
2023-04-12T13:23:26.527Z,99219.53
2023-04-12T13:25:53.498Z,99220.91
2023-04-12T13:28:21.455Z,99218.03
2023-04-12T13:30:48.703Z,99219.69
2023-04-12T13:33:19.322Z,99220.16
2023-04-12T13:35:48.126Z,99210.72
2023-04-12T13:38:15.001Z,99205.34
2023-04-12T13:40:41.999Z,99209.25
2023-04-12T13:43:08.953Z,99194.09
2023-04-12T13:45:36.141Z,99181.44
2023-04-12T13:48:03.319Z,99192.78
2023-04-12T13:50:30.360Z,99207.31
2023-04-12T13:52:57.338Z,99189.97
2023-04-12T13:55:24.238Z,99184.03
2023-04-12T13:57:51.183Z,99179.81
2023-04-12T14:00:19.540Z,99183.88
2023-04-12T14:02:46.745Z,99179.81
2023-04-12T14:05:14.076Z,99177.28
2023-04-12T14:07:41.174Z,99169.00
2023-04-12T14:10:08.903Z,99185.72
2023-04-12T14:12:36.067Z,99177.81
2023-04-12T14:15:03.441Z,99188.59
2023-04-12T14:17:32.574Z,99180.69
2023-04-12T14:20:00.423Z,99188.78
2023-04-12T14:22:27.949Z,99177.50
2023-04-12T14:24:55.082Z,99152.03
2023-04-12T14:27:22.417Z,99153.03
2023-04-12T14:29:51.899Z,99165.03
2023-04-12T14:32:18.942Z,99156.75
2023-04-12T14:34:46.535Z,99154.75
2023-04-12T14:37:13.707Z,99163.53
2023-04-12T14:39:40.856Z,99152.75
2023-04-12T14:42:07.784Z,99161.84
2023-04-12T14:44:34.734Z,99162.03
2023-04-12T14:47:01.691Z,99148.69
2023-04-12T14:49:32.839Z,99151.75
2023-04-12T14:52:00.785Z,99127.59
2023-04-12T14:54:27.709Z,99149.41
2023-04-12T14:56:56.107Z,99161.38
2023-04-12T14:59:23.492Z,99165.78
2023-04-12T15:01:52.413Z,99145.31
2023-04-12T15:04:20.253Z,99146.88
2023-04-12T15:06:47.532Z,99156.94
2023-04-12T15:09:15.844Z,99168.56
2023-04-12T15:11:46.517Z,99168.75
2023-04-12T15:14:18.130Z,99173.47
2023-04-12T15:16:49.183Z,99174.47
2023-04-12T15:19:21.104Z,99171.13
2023-04-12T15:21:51.296Z,99153.88
2023-04-12T15:24:27.359Z,99186.28
2023-04-12T15:26:54.504Z,99166.84
2023-04-12T15:29:26.688Z,99168.72
2023-04-12T15:31:56.074Z,99175.31
2023-04-12T15:34:28.324Z,99159.78
2023-04-12T15:36:55.274Z,99182.22
2023-04-12T15:39:22.486Z,99170.41
2023-04-12T15:41:49.403Z,99158.41
2023-04-12T15:44:16.783Z,99179.84
2023-04-12T15:46:53.318Z,99142.03
2023-04-12T15:49:31.322Z,99183.25
2023-04-12T15:51:59.554Z,99158.63
2023-04-12T15:54:26.594Z,99184.28
2023-04-12T15:56:53.570Z,99185.28
2023-04-12T15:59:20.542Z,99172.13
2023-04-12T16:01:48.679Z,99175.66
2023-04-12T16:04:18.711Z,99164.03
2023-04-12T16:06:46.539Z,99164.53
2023-04-12T16:09:14.428Z,99177.50
2023-04-12T16:11:43.521Z,99174.47
2023-04-12T16:14:11.441Z,99179.53
2023-04-12T16:16:40.378Z,99192.53
2023-04-12T16:19:08.361Z,99181.56
2023-04-12T16:21:35.909Z,99185.13
2023-04-12T16:24:03.294Z,99198.97
2023-04-12T16:26:30.331Z,99170.06
2023-04-12T16:28:57.937Z,99210.56
2023-04-12T16:31:26.387Z,99214.28
2023-04-12T16:33:54.004Z,99217.19
2023-04-12T16:36:23.427Z,99238.94
2023-04-12T16:38:59.172Z,99235.19
2023-04-12T16:41:26.480Z,99224.94
2023-04-12T16:43:55.017Z,99261.47
2023-04-12T16:46:22.759Z,99271.75
2023-04-12T16:48:49.958Z,99277.34
2023-04-12T16:51:17.545Z,99280.44
2023-04-12T16:53:44.461Z,99285.09
2023-04-12T16:56:11.535Z,99258.00
2023-04-12T16:58:38.453Z,99283.16
2023-04-12T17:01:05.746Z,99270.47
2023-04-12T17:03:33.299Z,99291.50
2023-04-12T17:06:00.504Z,99311.41
2023-04-12T17:08:27.563Z,99289.66
2023-04-12T17:10:54.609Z,99313.41
2023-04-12T17:13:22.341Z,99318.03
2023-04-12T17:15:49.333Z,99317.06
2023-04-12T17:18:16.419Z,99330.75
2023-04-12T17:20:44.035Z,99306.59
2023-04-12T17:23:11.439Z,99334.13
2023-04-12T17:25:38.737Z,99370.00
2023-04-12T17:28:07.862Z,99343.41
2023-04-12T17:30:34.860Z,99368.41
2023-04-12T17:33:01.981Z,99338.84
2023-04-12T17:35:29.412Z,99361.50
2023-04-12T17:37:59.238Z,99368.81
2023-04-12T17:40:26.185Z,99336.56
2023-04-12T17:42:53.197Z,99349.66
2023-04-12T17:45:21.740Z,99361.84
2023-04-12T17:47:48.988Z,99366.63
2023-04-12T17:50:15.963Z,99366.06
2023-04-12T17:52:42.861Z,99374.84
2023-04-12T17:55:10.333Z,99351.00
2023-04-12T17:57:37.317Z,99377.84
2023-04-12T18:00:09.270Z,99375.00
2023-04-12T18:02:40.612Z,99370.75
2023-04-12T18:05:07.983Z,99370.19
2023-04-12T18:07:35.394Z,99362.88
2023-04-12T18:10:03.016Z,99375.16
2023-04-12T18:12:32.831Z,99378.16
2023-04-12T18:14:59.950Z,99390.13
2023-04-12T18:17:27.101Z,99392.13
2023-04-12T18:19:54.703Z,99397.31
2023-04-12T18:22:21.877Z,99396.28
2023-04-12T18:24:48.838Z,99395.72
2023-04-12T18:27:16.080Z,99398.38
2023-04-12T18:29:43.021Z,99385.56
2023-04-12T18:32:09.871Z,99379.38
2023-04-12T18:34:36.749Z,99397.16
2023-04-12T18:37:05.967Z,99387.28
2023-04-12T18:39:35.383Z,99375.41
2023-04-12T18:42:02.670Z,99380.94
2023-04-12T18:44:30.519Z,99380.50
2023-04-12T18:46:57.458Z,99388.69
2023-04-12T18:49:24.544Z,99379.31
2023-04-12T18:51:53.171Z,99382.75
2023-04-12T18:54:21.014Z,99378.47
2023-04-12T18:56:47.980Z,99373.31
2023-04-12T18:59:17.583Z,99373.50
2023-04-12T19:01:45.885Z,99376.00
2023-04-12T19:04:13.067Z,99355.56
2023-04-12T19:06:40.066Z,99371.19
2023-04-12T19:09:08.222Z,99348.31
2023-04-12T19:11:37.090Z,99374.31
2023-04-12T19:14:04.424Z,99369.59
2023-04-12T19:16:32.008Z,99385.72
2023-04-12T19:19:00.174Z,99380.25
2023-04-12T19:21:29.199Z,99383.50
2023-04-12T19:23:56.394Z,99397.03
2023-04-12T19:26:23.632Z,99404.31
2023-04-12T19:28:55.586Z,99398.78
2023-04-12T19:31:23.891Z,99373.59
2023-04-12T19:33:50.986Z,99376.94
2023-04-12T19:36:17.851Z,99405.38
2023-04-12T19:38:47.756Z,99399.84
2023-04-12T19:41:17.502Z,99411.84
2023-04-12T19:43:44.405Z,99381.56
2023-04-12T19:46:11.723Z,99415.00
2023-04-12T19:48:38.740Z,99411.84
2023-04-12T19:51:05.831Z,99429.56
2023-04-12T19:53:33.913Z,99424.63
2023-04-12T19:56:03.892Z,99415.53
2023-04-12T19:58:32.002Z,99411.13
2023-04-12T20:01:02.144Z,99393.72
2023-04-12T20:03:29.864Z,99406.28
2023-04-12T20:05:58.870Z,99375.63
2023-04-12T20:08:28.453Z,99393.59
2023-04-12T20:10:56.210Z,99402.84
2023-04-12T20:13:23.271Z,99406.19
2023-04-12T20:15:50.979Z,99405.34
2023-04-12T20:18:17.924Z,99401.81
2023-04-12T20:20:45.050Z,99427.97
2023-04-12T20:23:15.370Z,99401.03
2023-04-12T20:25:42.624Z,99411.66
2023-04-12T20:28:09.932Z,99405.84
2023-04-12T20:30:37.210Z,99401.66
2023-04-12T20:33:04.761Z,99418.03
2023-04-12T20:35:32.225Z,99398.38
2023-04-12T20:37:59.972Z,99406.09
2023-04-12T20:40:29.550Z,99419.41
2023-04-12T20:42:56.868Z,99392.09
2023-04-12T20:45:23.969Z,99405.50
2023-04-12T20:47:51.122Z,99410.72
2023-04-12T20:50:22.405Z,99409.44
2023-04-12T20:52:51.823Z,99415.81
2023-04-12T20:55:18.802Z,99400.16
2023-04-12T20:57:46.411Z,99410.59
2023-04-12T21:00:18.194Z,99392.69
2023-04-12T21:02:45.956Z,99407.59
2023-04-12T21:05:16.675Z,99383.94
2023-04-12T21:07:43.720Z,99377.22
2023-04-12T21:10:14.654Z,99403.56
2023-04-12T21:12:42.627Z,99410.25
2023-04-12T21:15:11.695Z,99382.19
2023-04-12T21:17:39.141Z,99404.31
2023-04-12T21:20:13.299Z,99409.34
2023-04-12T21:22:45.042Z,99406.50
2023-04-12T21:25:14.986Z,99409.06
2023-04-12T21:27:43.664Z,99399.41
2023-04-12T21:30:11.216Z,99399.25
2023-04-12T21:32:38.583Z,99404.16
2023-04-12T21:35:07.258Z,99389.47
2023-04-12T21:37:35.983Z,99395.25
2023-04-12T21:40:10.378Z,99412.03
2023-04-12T21:42:38.368Z,99406.94
2023-04-12T21:45:08.570Z,99416.78
2023-04-12T21:47:35.681Z,99406.34
2023-04-12T21:50:03.010Z,99415.97
2023-04-12T21:52:29.960Z,99404.66
2023-04-12T21:54:56.852Z,99379.66
2023-04-12T21:57:23.765Z,99404.81
2023-04-12T21:59:50.986Z,99396.44
2023-04-12T22:02:17.926Z,99395.00
2023-04-12T22:04:44.982Z,99417.56
2023-04-12T22:07:13.048Z,99422.03
2023-04-12T22:09:41.261Z,99416.69
2023-04-12T22:12:09.128Z,99422.78
2023-04-12T22:14:36.945Z,99428.50
2023-04-12T22:17:05.948Z,99399.59
2023-04-12T22:19:32.946Z,99415.41
2023-04-12T22:21:59.815Z,99433.47
2023-04-12T22:24:26.724Z,99434.72
2023-04-12T22:26:57.347Z,99423.03
2023-04-12T22:29:25.267Z,99424.84
2023-04-12T22:31:52.623Z,99430.81
2023-04-12T22:34:19.683Z,99410.66
2023-04-12T22:36:51.510Z,99379.69
2023-04-12T22:39:21.544Z,99420.59
2023-04-12T22:41:53.218Z,99416.84
2023-04-12T22:44:22.141Z,99431.66
2023-04-12T22:46:50.200Z,99440.78
2023-04-12T22:49:19.838Z,99429.22
2023-04-12T22:51:46.793Z,99423.41
2023-04-12T22:54:13.935Z,99414.78
2023-04-12T22:56:46.931Z,99407.97
2023-04-12T22:59:22.209Z,99395.25
2023-04-12T23:01:49.355Z,99413.59
2023-04-12T23:04:16.898Z,99403.50
2023-04-12T23:06:44.480Z,99388.81
2023-04-12T23:09:12.811Z,99419.75
2023-04-12T23:11:41.700Z,99413.44
2023-04-12T23:14:09.937Z,99412.00
2023-04-12T23:16:47.021Z,99397.91
2023-04-12T23:19:14.676Z,99385.63
2023-04-12T23:21:42.894Z,99395.47
2023-04-12T23:24:16.242Z,99397.31
2023-04-12T23:26:45.102Z,99378.50
2023-04-12T23:29:12.638Z,99363.44
2023-04-12T23:31:41.788Z,99369.50
2023-04-12T23:34:08.725Z,99367.09
2023-04-12T23:36:36.669Z,99368.41
2023-04-12T23:39:08.484Z,99349.75
2023-04-12T23:41:35.615Z,99356.88
2023-04-12T23:44:02.509Z,99363.34
2023-04-12T23:46:29.704Z,99348.03
2023-04-12T23:48:56.742Z,99333.13
2023-04-12T23:51:23.699Z,99352.03
2023-04-12T23:53:50.629Z,99330.91
2023-04-12T23:56:17.635Z,99337.13
2023-04-12T23:58:44.546Z,99336.38
